Time;durP1;ratioP1;P1;durP2;ratioP2;P2;SDS_P1;SDS_P2;PMS_P1;PMS_P2;Temp;Humidity;BMP_temperature;BMP_pressure;BME280_temperature;BME280_humidity;BME280_pressure;Samples;Min_cycle;Max_cycle;Signal;HPM_P1;HPM_P2
2023/10/08 00:01:55;;;;;;;7.90;3.50;;;;;;;17.60;75.28;98640.16;232972;215;149570;-56
2023/10/08 00:06:59;;;;;;;;;;;;;;;17.51;75.85;98635.36;232919;215;138551;-56
2023/10/08 00:12:04;;;;;;;2.60;1.20;;;;;;;17.51;75.87;98642.58;233140;215;134871;-57
2023/10/08 00:17:10;;;;;;;1.00;0.50;;;;;;;17.46;75.10;98646.75;233074;215;149412;-55
2023/10/08 00:22:18;;;;;;;1.60;0.20;;;;;;;17.35;74.50;98640.83;232933;215;138921;-57
2023/10/08 00:27:24;;;;;;;0.20;0.10;;;;;;;17.28;74.38;98649.07;232959;215;137555;-59
2023/10/08 00:32:28;;;;;;;0.80;0.20;;;;;;;17.18;74.38;98654.01;233111;215;150352;-58
2023/10/08 00:37:34;;;;;;;0.20;0.10;;;;;;;17.13;74.46;98648.02;233007;215;139916;-58
2023/10/08 00:42:45;;;;;;;1.00;0.10;;;;;;;17.01;74.74;98641.91;233037;215;137024;-63
2023/10/08 00:47:49;;;;;;;0.80;0.10;;;;;;;16.84;75.14;98638.41;233070;215;149382;-62
2023/10/08 00:53:00;;;;;;;0.30;0.10;;;;;;;16.75;75.50;98640.83;232998;215;138508;-62
2023/10/08 00:58:11;;;;;;;0.20;0.10;;;;;;;16.71;75.07;98642.79;232880;215;140860;-60
2023/10/08 01:03:16;;;;;;;0.10;0.10;;;;;;;16.61;73.96;98647.98;232971;208;148985;-58
2023/10/08 01:08:36;;;;;;;0.10;0.10;;;;;;;16.43;73.36;98649.84;232940;215;140023;-58
2023/10/08 01:13:45;;;;;;;0.20;0.10;;;;;;;16.27;73.44;98652.39;233048;215;137555;-59
2023/10/08 01:18:54;;;;;;;0.20;0.10;;;;;;;16.11;73.51;98661.91;232998;215;150208;-59
2023/10/08 01:24:00;;;;;;;0.20;0.00;;;;;;;15.91;73.32;98668.54;232885;215;139511;-59
2023/10/08 01:29:09;;;;;;;0.20;0.10;;;;;;;15.73;72.89;98673.40;232975;215;137398;-57
2023/10/08 01:34:17;;;;;;;1.00;0.10;;;;;;;15.51;72.94;98680.48;233035;215;150429;-57
2023/10/08 01:39:21;;;;;;;0.40;0.20;;;;;;;15.32;73.53;98679.85;233031;215;138082;-59
2023/10/08 01:44:25;;;;;;;0.20;0.10;;;;;;;15.24;73.83;98680.77;233026;215;137779;-57
2023/10/08 01:49:33;;;;;;;0.30;0.10;;;;;;;15.14;73.61;98684.09;233056;216;150848;-58
2023/10/08 01:54:37;;;;;;;0.30;0.10;;;;;;;15.08;73.54;98689.58;232966;215;140562;-59
2023/10/08 01:59:41;;;;;;;0.70;0.00;;;;;;;15.01;73.06;98704.37;233061;215;136843;-63
2023/10/08 02:04:47;;;;;;;0.90;0.10;;;;;;;14.91;72.94;98700.93;233020;211;149503;-62
2023/10/08 02:09:51;;;;;;;0.50;0.10;;;;;;;14.73;72.56;98710.10;232933;215;138153;-60
2023/10/08 02:14:56;;;;;;;0.50;0.10;;;;;;;14.51;72.54;98713.02;232917;214;136880;-60
2023/10/08 02:20:05;;;;;;;0.00;0.00;;;;;;;14.39;72.84;98707.01;232959;215;149218;-58
2023/10/08 02:25:11;;;;;;;0.20;0.20;;;;;;;14.36;72.84;98710.98;233017;215;140425;-55
2023/10/08 02:30:15;;;;;;;0.20;0.10;;;;;;;14.39;72.56;98725.95;232937;215;137727;-58
2023/10/08 02:35:18;;;;;;;0.80;0.20;;;;;;;14.34;72.45;98738.83;233003;215;148856;-56
2023/10/08 02:40:30;;;;;;;1.30;0.40;;;;;;;14.24;72.39;98731.83;232970;215;138921;-58
2023/10/08 02:45:38;;;;;;;1.10;0.50;;;;;;;14.14;72.44;98740.90;233041;215;136931;-59
2023/10/08 02:50:45;;;;;;;1.10;0.60;;;;;;;14.02;72.55;98754.35;232972;215;149392;-59
2023/10/08 02:55:50;;;;;;;1.30;0.50;;;;;;;13.91;72.70;98738.44;232974;215;139237;-60
2023/10/08 03:00:54;;;;;;;1.50;0.60;;;;;;;13.82;72.89;98746.15;233010;216;137389;-59
2023/10/08 03:05:58;;;;;;;1.40;0.70;;;;;;;13.78;72.55;98755.58;233054;215;150063;-60
2023/10/08 03:11:03;;;;;;;2.60;0.80;;;;;;;13.68;72.53;98748.16;232918;215;139368;-58
2023/10/08 03:16:13;;;;;;;2.70;1.00;;;;;;;13.62;72.67;98740.63;232990;215;137929;-60
2023/10/08 03:21:20;;;;;;;1.40;0.80;;;;;;;13.55;72.52;98736.17;232980;215;149472;-62
2023/10/08 03:26:33;;;;;;;1.10;0.70;;;;;;;13.45;72.35;98723.70;232997;215;138475;-61
2023/10/08 03:36:59;;;;;;;2.60;0.70;;;;;;;13.38;72.70;98754.94;232975;215;149391;-61
2023/10/08 03:42:07;;;;;;;2.70;0.70;;;;;;;13.33;72.86;98755.48;233037;215;139996;-58
2023/10/08 03:47:11;;;;;;;1.10;0.80;;;;;;;13.29;73.09;98774.75;232994;214;136872;-59
2023/10/08 03:52:15;;;;;;;3.60;0.90;;;;;;;13.27;73.39;98795.21;232938;215;148593;-59
2023/10/08 03:57:25;;;;;;;3.20;1.20;;;;;;;13.24;73.70;98818.55;232813;215;139268;-58
2023/10/08 04:02:46;;;;;;;2.30;0.90;;;;;;;13.23;74.12;98820.91;232967;215;137621;-60
2023/10/08 04:13:16;;;;;;;1.80;0.90;;;;;;;13.31;74.16;98842.14;232871;215;139669;-60
2023/10/08 04:18:20;;;;;;;1.40;0.60;;;;;;;13.26;74.27;98851.53;232980;214;138187;-60
2023/10/08 04:23:24;;;;;;;4.20;0.90;;;;;;;13.24;74.41;98853.50;232884;214;150150;-60
2023/10/08 04:28:34;;;;;;;3.50;1.00;;;;;;;13.23;74.26;98862.64;232946;215;139581;-56
2023/10/08 04:33:39;;;;;;;2.20;0.80;;;;;;;13.22;73.80;98879.29;232944;215;137613;-58
2023/10/08 04:38:45;;;;;;;2.10;1.20;;;;;;;13.18;73.35;98884.23;233108;215;150151;-58
2023/10/08 04:43:49;;;;;;;5.00;1.40;;;;;;;13.21;73.02;98886.84;233049;216;138630;-58
2023/10/08 04:48:53;;;;;;;3.80;1.20;;;;;;;13.19;72.60;98896.96;232983;215;137523;-60
2023/10/08 04:53:57;;;;;;;5.30;1.20;;;;;;;13.10;72.53;98902.08;232886;215;150273;-59
2023/10/08 04:59:04;;;;;;;5.50;1.50;;;;;;;13.00;72.76;98909.92;233028;215;140855;-57
2023/10/08 05:04:23;;;;;;;4.20;1.30;;;;;;;12.91;72.34;98927.02;232943;215;137878;-61
2023/10/08 05:15:21;;;;;;;4.90;1.50;;;;;;;12.75;72.13;98949.35;232903;215;139437;-58
2023/10/08 05:36:27;;;;;;;46.00;32.30;;;;;;;12.78;72.24;99009.66;233002;215;136943;-57
2023/10/08 05:41:39;;;;;;;5.70;1.70;;;;;;;12.76;72.46;99004.98;232944;215;149535;-59
2023/10/08 06:07:48;;;;;;;3.30;1.50;;;;;;;12.59;71.69;99086.65;233101;215;136876;-62
2023/10/08 06:13:01;;;;;;;4.50;1.60;;;;;;;12.50;71.59;99107.91;233048;215;149466;-60
2023/10/08 06:18:07;;;;;;;5.00;1.60;;;;;;;12.49;71.73;99106.01;233040;215;139433;-59
2023/10/08 06:23:18;;;;;;;10.40;3.60;;;;;;;12.54;71.58;99114.38;233002;215;138222;-60
2023/10/08 06:28:25;;;;;;;11.40;5.60;;;;;;;12.61;71.70;99120.90;233133;215;149372;-59
2023/10/08 06:33:33;;;;;;;4.20;1.60;;;;;;;12.65;71.55;99141.60;233001;215;139769;-60
2023/10/08 06:38:38;;;;;;;4.40;1.70;;;;;;;12.62;71.10;99159.27;232999;215;137795;-58
2023/10/08 06:43:49;;;;;;;3.90;1.50;;;;;;;12.55;71.33;99168.77;232955;215;149475;-57
2023/10/08 06:48:53;;;;;;;3.00;1.40;;;;;;;12.50;71.78;99182.30;232988;215;140054;-56
2023/10/08 06:54:01;;;;;;;3.40;1.60;;;;;;;12.47;72.03;99179.70;232992;215;137540;-57
2023/10/08 06:59:09;;;;;;;4.10;1.80;;;;;;;12.49;72.08;99189.48;232882;215;148213;-56
2023/10/08 07:04:14;;;;;;;5.10;1.50;;;;;;;12.53;72.53;99183.51;233029;216;139454;-58
2023/10/08 07:14:31;;;;;;;3.20;1.40;;;;;;;12.61;72.55;99213.80;232995;215;150379;-57
2023/10/08 07:19:39;;;;;;;135.30;100.40;;;;;;;12.60;72.56;99229.89;233002;215;138596;-58
2023/10/08 07:24:45;;;;;;;4.00;2.00;;;;;;;12.65;72.73;99224.23;233016;215;137550;-58
2023/10/08 07:29:55;;;;;;;2.70;1.40;;;;;;;12.67;72.55;99217.44;232989;215;149630;-58
2023/10/08 07:35:24;;;;;;;4.00;1.60;;;;;;;12.72;72.53;99222.25;233057;216;138875;-58
2023/10/08 07:40:29;;;;;;;4.40;1.80;;;;;;;12.81;72.33;99231.84;232893;215;137668;-57
2023/10/08 07:45:35;;;;;;;43.90;35.00;;;;;;;12.80;72.25;99241.31;232968;215;148545;-58
2023/10/08 07:50:43;;;;;;;8.60;4.10;;;;;;;12.83;72.59;99251.13;233019;216;138927;-58
2023/10/08 07:55:48;;;;;;;2.50;1.60;;;;;;;12.94;72.50;99250.70;232939;215;137827;-57
2023/10/08 08:00:52;;;;;;;3.70;1.30;;;;;;;13.00;71.80;99250.80;233017;215;150462;-58
2023/10/08 08:05:58;;;;;;;3.10;1.50;;;;;;;13.17;71.62;99258.60;232900;215;139867;-59
2023/10/08 08:11:11;;;;;;;3.10;1.70;;;;;;;13.32;71.09;99264.48;232956;215;138036;-57
2023/10/08 08:16:18;;;;;;;3.30;1.40;;;;;;;13.42;70.14;99272.84;233005;216;148702;-59
2023/10/08 08:21:23;;;;;;;4.90;1.80;;;;;;;13.48;69.54;99279.96;232993;215;140689;-58
2023/10/08 08:26:27;;;;;;;2.00;1.40;;;;;;;13.55;69.48;99283.57;232977;215;137427;-60
2023/10/08 08:31:31;;;;;;;4.80;1.70;;;;;;;13.60;68.32;99292.17;232949;215;150874;-60
2023/10/08 08:36:39;;;;;;;4.30;1.50;;;;;;;13.58;68.68;99294.61;233003;215;139922;-58
2023/10/08 08:41:43;;;;;;;3.70;2.10;;;;;;;13.62;68.83;99306.42;232895;216;137055;-58
2023/10/08 08:46:48;;;;;;;3.50;1.60;;;;;;;13.77;67.98;99311.29;233173;215;149632;-58
2023/10/08 08:51:55;;;;;;;377.20;252.90;;;;;;;13.91;67.21;99307.02;232962;215;139722;-59
2023/10/08 08:57:13;;;;;;;6.50;4.00;;;;;;;14.10;66.46;99305.64;232981;215;138476;-58
2023/10/08 09:02:18;;;;;;;57.30;45.00;;;;;;;14.30;63.80;99317.11;233044;215;149385;-58
2023/10/08 09:07:23;;;;;;;4.70;2.30;;;;;;;14.31;62.74;99329.86;233029;215;139974;-58
2023/10/08 09:12:26;;;;;;;4.40;1.90;;;;;;;14.32;61.10;99336.94;233018;215;137136;-57
2023/10/08 09:17:33;;;;;;;4.50;2.30;;;;;;;14.38;60.62;99340.73;233015;215;150243;-58
2023/10/08 09:22:37;;;;;;;5.40;2.00;;;;;;;14.30;59.99;99344.23;232981;215;138705;-57
2023/10/08 09:27:46;;;;;;;3.40;1.80;;;;;;;14.28;60.21;99354.36;232948;215;137861;-59
2023/10/08 09:32:49;;;;;;;2.90;1.60;;;;;;;14.30;59.66;99352.95;233036;215;150219;-57
2023/10/08 09:37:58;;;;;;;2.60;1.40;;;;;;;14.34;58.27;99359.45;233020;215;138816;-59
2023/10/08 09:43:03;;;;;;;465.80;339.80;;;;;;;14.44;58.12;99360.70;233021;215;136985;-57
2023/10/08 09:48:14;;;;;;;5.60;3.90;;;;;;;14.53;55.53;99372.23;232981;215;150557;-57
2023/10/08 09:53:32;;;;;;;2.10;1.50;;;;;;;14.54;54.61;99369.83;232963;215;138567;-58
2023/10/08 09:58:36;;;;;;;2.70;1.40;;;;;;;14.57;52.01;99376.75;232965;215;136848;-58
2023/10/08 10:03:42;;;;;;;4.90;2.90;;;;;;;14.59;50.49;99387.13;232900;215;148228;-59
2023/10/08 10:08:48;;;;;;;2.10;1.20;;;;;;;14.67;51.14;99393.50;233085;215;139799;-63
2023/10/08 10:14:01;;;;;;;255.90;172.00;;;;;;;14.91;53.30;99398.00;233009;215;136974;-59
2023/10/08 10:19:06;;;;;;;4.70;2.30;;;;;;;15.15;51.55;99396.20;232994;215;149278;-57
2023/10/08 10:24:33;;;;;;;2.80;1.50;;;;;;;15.12;50.90;99406.38;232885;215;139423;-58
2023/10/08 10:29:37;;;;;;;3.70;1.50;;;;;;;15.13;50.97;99406.14;233003;215;137836;-58
2023/10/08 10:34:43;;;;;;;4.90;1.30;;;;;;;15.36;50.40;99405.70;232935;215;149120;-58
2023/10/08 10:39:54;;;;;;;3.20;1.30;;;;;;;15.46;48.10;99403.50;233022;215;139334;-58
2023/10/08 10:44:59;;;;;;;4.70;1.50;;;;;;;15.50;49.00;99404.97;233087;216;138293;-59
2023/10/08 11:00:47;;;;;;;9.40;6.30;;;;;;;15.09;43.47;99424.67;232892;215;137726;-58
2023/10/08 11:05:48;;;;;;;2.50;1.40;;;;;;;15.12;43.80;99427.65;232990;215;149857;-59
2023/10/08 11:10:58;;;;;;;3.00;1.20;;;;;;;15.18;44.32;99433.67;232954;215;138995;-59
2023/10/08 11:16:05;;;;;;;3.70;1.00;;;;;;;15.20;42.33;99441.56;232974;215;137304;-56
2023/10/08 11:21:15;;;;;;;1.70;0.90;;;;;;;15.07;39.98;99444.15;232972;216;149541;-57
2023/10/08 11:26:31;;;;;;;1.00;0.80;;;;;;;15.11;39.53;99440.44;232970;215;138885;-59
2023/10/08 11:31:39;;;;;;;2.50;1.00;;;;;;;15.21;39.99;99448.09;232923;215;137789;-58
2023/10/08 11:36:49;;;;;;;1.30;0.80;;;;;;;15.26;39.17;99452.19;233005;215;151030;-58
2023/10/08 11:42:02;;;;;;;2.40;0.90;;;;;;;15.57;39.90;99450.80;232954;215;140362;-58
2023/10/08 11:47:20;;;;;;;2.30;1.50;;;;;;;15.97;40.88;99453.09;232927;215;137364;-57
2023/10/08 11:52:24;;;;;;;1.50;0.90;;;;;;;16.36;38.85;99449.47;232934;216;231098;-57
2023/10/08 11:57:30;;;;;;;2.00;1.00;;;;;;;16.46;37.07;99449.95;232883;215;139088;-58
2023/10/08 12:02:34;;;;;;;;;;;;;;;16.39;37.57;99462.15;233030;215;137401;-59
2023/10/08 12:07:39;;;;;;;2.40;1.00;;;;;;;16.19;35.50;99478.02;233145;215;149489;-59
2023/10/08 12:12:45;;;;;;;3.30;1.20;;;;;;;15.92;34.82;99486.02;233052;216;139733;-60
2023/10/08 12:23:24;;;;;;;2.60;1.20;;;;;;;15.47;36.41;99501.02;232941;215;150245;-60
2023/10/08 12:28:29;;;;;;;180.40;135.10;;;;;;;15.29;37.13;99507.20;232961;215;139043;-59
2023/10/08 12:33:33;;;;;;;4.60;2.20;;;;;;;15.23;38.16;99512.33;232968;215;137571;-61
2023/10/08 12:38:40;;;;;;;6.70;1.60;;;;;;;15.10;38.32;99499.12;232880;215;149536;-60
2023/10/08 12:43:45;;;;;;;1.80;1.00;;;;;;;15.01;39.64;99507.49;232872;215;138816;-62
2023/10/08 12:48:53;;;;;;;2.70;1.20;;;;;;;15.05;39.49;99516.51;232937;215;137087;-60
2023/10/08 12:54:06;;;;;;;1.80;1.00;;;;;;;15.02;38.81;99518.45;232969;215;149837;-59
2023/10/08 12:59:21;;;;;;;9.60;6.40;;;;;;;15.15;40.12;99517.73;232974;215;137505;-59
2023/10/08 13:04:34;;;;;;;2.20;1.30;;;;;;;15.32;38.35;99520.20;233095;215;138201;-58
2023/10/08 13:09:38;;;;;;;1.80;1.00;;;;;;;15.42;36.55;99520.00;233051;214;150639;-58
2023/10/08 13:14:44;;;;;;;2.80;1.10;;;;;;;15.45;35.60;99523.17;233025;215;138439;-58
2023/10/08 13:19:48;;;;;;;3.60;1.40;;;;;;;15.40;36.22;99527.67;232998;215;137901;-58
2023/10/08 13:24:52;;;;;;;1.50;0.90;;;;;;;15.25;36.34;99529.89;233062;215;148233;-58
2023/10/08 13:29:56;;;;;;;2.00;1.30;;;;;;;15.12;37.41;99541.52;232941;215;138033;-58
2023/10/08 13:35:04;;;;;;;2.50;1.40;;;;;;;15.00;34.86;99555.85;233299;215;137211;-58
2023/10/08 13:40:08;;;;;;;2.90;1.30;;;;;;;14.77;34.40;99559.78;232954;214;148818;-57
2023/10/08 13:45:26;;;;;;;4.10;1.30;;;;;;;14.67;35.23;99563.38;233016;215;138778;-59
2023/10/08 13:50:30;;;;;;;1.80;1.10;;;;;;;14.62;36.12;99564.18;233002;215;136965;-58
2023/10/08 13:55:34;;;;;;;2.80;1.20;;;;;;;14.58;36.37;99567.70;233000;215;150191;-58
2023/10/08 14:00:40;;;;;;;2.70;1.20;;;;;;;14.53;36.29;99573.30;232966;215;138893;-60
2023/10/08 14:05:49;;;;;;;2.60;1.30;;;;;;;14.43;35.97;99580.89;233036;214;137150;-58
2023/10/08 14:10:56;;;;;;;35.10;28.80;;;;;;;14.40;35.71;99592.89;233010;215;149918;-59
2023/10/08 14:16:04;;;;;;;2.70;1.70;;;;;;;14.32;34.74;99603.62;232985;215;139601;-57
2023/10/08 14:21:10;;;;;;;2.90;1.10;;;;;;;14.10;33.45;99597.40;232971;215;137969;-60
2023/10/08 14:26:15;;;;;;;3.60;1.50;;;;;;;13.99;33.20;99604.42;232990;215;151251;-60
2023/10/08 14:31:22;;;;;;;;;;;;;;;13.99;35.35;99602.26;233046;215;138210;-61
2023/10/08 14:47:13;;;;;;;2.30;1.10;;;;;;;13.89;34.94;99609.67;232933;215;138155;-59
2023/10/08 14:52:18;;;;;;;2.70;1.40;;;;;;;13.79;35.32;99617.19;233050;215;137029;-59
2023/10/08 14:57:26;;;;;;;53.90;43.40;;;;;;;13.72;36.32;99627.61;232959;215;149861;-60
2023/10/08 15:02:31;;;;;;;4.20;2.10;;;;;;;13.69;36.62;99639.37;232915;215;139745;-62
2023/10/08 15:07:36;;;;;;;2.40;1.30;;;;;;;13.65;36.91;99647.48;233045;216;137018;-60
2023/10/08 15:12:40;;;;;;;2.70;1.40;;;;;;;13.61;36.90;99662.73;233038;215;149110;-59
2023/10/08 15:17:48;;;;;;;2.50;1.20;;;;;;;13.52;36.93;99662.97;232955;215;140033;-59
2023/10/08 15:22:53;;;;;;;2.70;1.20;;;;;;;13.39;36.89;99671.62;233127;216;137573;-63
2023/10/08 15:27:57;;;;;;;2.30;1.20;;;;;;;13.25;36.69;99680.69;232878;215;150177;-61
2023/10/08 15:33:01;;;;;;;1.70;1.00;;;;;;;13.14;37.09;99685.11;232914;216;139434;-57
2023/10/08 15:38:05;;;;;;;11.40;5.40;;;;;;;13.08;36.94;99691.39;232934;215;137071;-59
2023/10/08 15:43:11;;;;;;;1.70;1.10;;;;;;;12.99;36.89;99702.05;232863;215;149930;-59
2023/10/08 15:48:14;;;;;;;2.90;1.30;;;;;;;12.89;36.99;99712.11;233068;216;140044;-61
2023/10/08 15:53:18;;;;;;;3.50;1.30;;;;;;;12.80;37.44;99723.52;233011;215;137529;-60
2023/10/08 15:58:23;;;;;;;4.00;1.50;;;;;;;12.73;37.69;99736.93;232945;215;150037;-60
2023/10/08 16:03:26;;;;;;;5.40;1.40;;;;;;;12.67;37.98;99746.92;232893;215;138436;-58
2023/10/08 16:08:31;;;;;;;1.90;1.20;;;;;;;12.57;38.26;99754.77;232985;215;137159;-61
2023/10/08 16:13:37;;;;;;;1.80;1.50;;;;;;;12.48;38.78;99763.89;232990;215;148046;-62
2023/10/08 16:18:42;;;;;;;3.00;1.50;;;;;;;12.37;39.13;99759.55;232998;215;138803;-62
2023/10/08 16:23:47;;;;;;;4.30;1.70;;;;;;;12.29;40.99;99760.15;233001;215;137247;-60
2023/10/08 16:28:52;;;;;;;3.30;1.50;;;;;;;12.22;40.23;99769.11;232934;215;149109;-61
2023/10/08 16:33:55;;;;;;;3.10;1.50;;;;;;;12.17;40.60;99774.39;232974;215;139256;-60
2023/10/08 16:38:59;;;;;;;4.20;2.10;;;;;;;12.10;40.84;99793.83;232973;215;138224;-59
2023/10/08 16:44:05;;;;;;;5.10;1.90;;;;;;;12.00;41.15;99797.56;232932;215;150260;-59
2023/10/08 16:49:10;;;;;;;128.60;88.30;;;;;;;11.92;41.99;99800.84;232990;215;140703;-62
2023/10/08 16:54:15;;;;;;;6.30;3.40;;;;;;;12.06;43.73;99804.89;233098;215;138054;-59
2023/10/08 16:59:19;;;;;;;6.00;2.20;;;;;;;11.96;42.33;99816.98;232937;215;149596;-58
2023/10/08 17:04:23;;;;;;;4.80;2.00;;;;;;;11.82;42.76;99821.27;232849;214;139795;-58
2023/10/08 17:09:27;;;;;;;2.80;1.70;;;;;;;11.73;43.16;99829.94;232901;215;138020;-59
2023/10/08 17:14:31;;;;;;;3.90;2.00;;;;;;;11.62;43.21;99827.89;233014;215;150150;-60
2023/10/08 17:19:35;;;;;;;4.80;1.80;;;;;;;11.52;43.54;99825.90;232902;215;139594;-60
2023/10/08 17:24:40;;;;;;;4.90;3.10;;;;;;;11.46;43.72;99833.17;233077;216;136970;-59
2023/10/08 17:29:45;;;;;;;4.30;2.00;;;;;;;11.39;44.01;99841.38;233063;216;149427;-58
2023/10/08 17:34:52;;;;;;;3.40;1.90;;;;;;;11.32;44.34;99842.95;233010;215;138017;-59
2023/10/08 17:39:57;;;;;;;5.60;2.20;;;;;;;11.23;44.60;99852.50;232926;214;137019;-61
2023/10/08 17:45:01;;;;;;;4.40;2.10;;;;;;;11.13;44.94;99870.22;232820;215;151141;-60
2023/10/08 17:50:07;;;;;;;6.70;2.10;;;;;;;11.08;45.27;99881.52;232946;215;140145;-61
2023/10/08 17:55:12;;;;;;;7.40;2.80;;;;;;;11.01;45.55;99886.98;233075;215;137739;-64
2023/10/08 18:00:17;;;;;;;;;;;;;;;11.02;46.42;99889.27;233085;215;150203;-61
2023/10/08 18:05:26;;;;;;;6.20;3.20;;;;;;;11.06;46.96;99891.01;233056;215;139089;-61
2023/10/08 18:10:34;;;;;;;8.30;3.00;;;;;;;10.95;46.62;99896.73;233027;215;137003;-63
2023/10/08 18:15:39;;;;;;;7.60;3.00;;;;;;;10.83;46.92;99898.73;232967;215;150523;-61
2023/10/08 18:20:46;;;;;;;8.00;3.60;;;;;;;10.73;47.32;99899.38;232860;215;139820;-61
2023/10/08 18:25:53;;;;;;;6.20;3.80;;;;;;;10.60;47.63;99900.52;232904;215;137600;-59
2023/10/08 18:30:59;;;;;;;8.90;4.50;;;;;;;10.55;48.05;99899.55;233036;215;151008;-59
2023/10/08 18:36:05;;;;;;;7.60;4.50;;;;;;;10.49;48.38;99900.91;233002;215;138334;-56
2023/10/08 18:41:09;;;;;;;8.40;4.80;;;;;;;10.46;48.73;99904.98;233068;215;137435;-58
2023/10/08 18:46:13;;;;;;;8.00;4.70;;;;;;;10.41;49.08;99905.55;233027;215;149390;-59
2023/10/08 18:51:20;;;;;;;11.30;5.10;;;;;;;10.32;49.43;99912.02;232844;215;138922;-59
2023/10/08 18:56:25;;;;;;;9.80;4.80;;;;;;;10.24;49.79;99913.26;233082;215;138031;-58
2023/10/08 19:01:31;;;;;;;7.70;4.80;;;;;;;10.15;50.13;99919.13;232989;215;150414;-58
2023/10/08 19:06:35;;;;;;;8.40;4.70;;;;;;;10.09;50.47;99925.27;232871;215;138221;-59
2023/10/08 19:11:40;;;;;;;9.20;4.70;;;;;;;9.99;50.97;99928.58;232952;215;137732;-60
2023/10/08 19:16:47;;;;;;;9.70;4.70;;;;;;;9.91;51.32;99931.91;233093;216;149824;-60
2023/10/08 19:21:53;;;;;;;9.20;4.50;;;;;;;9.86;51.66;99941.38;233004;216;139094;-60
2023/10/08 19:26:58;;;;;;;8.10;4.30;;;;;;;9.80;51.94;99940.95;233004;216;137193;-59
2023/10/08 19:32:02;;;;;;;8.00;4.60;;;;;;;9.72;52.46;99948.90;233053;216;150826;-57
2023/10/08 19:37:07;;;;;;;12.20;5.00;;;;;;;9.62;52.64;99945.98;232915;216;140049;-59
2023/10/08 19:42:11;;;;;;;8.00;4.40;;;;;;;9.56;53.06;99949.64;232964;215;137349;-59
2023/10/08 19:47:16;;;;;;;10.20;4.60;;;;;;;9.53;53.28;99948.52;232982;213;148945;-61
2023/10/08 19:52:19;;;;;;;9.50;4.20;;;;;;;9.51;53.40;99946.64;233090;215;138816;-59
2023/10/08 19:57:23;;;;;;;9.20;4.40;;;;;;;9.48;53.76;99946.59;233061;215;139424;-60
2023/10/08 20:02:28;;;;;;;12.90;5.20;;;;;;;9.44;53.87;99949.58;233116;215;149359;-57
2023/10/08 20:07:31;;;;;;;9.80;4.80;;;;;;;9.40;54.14;99953.85;232994;215;137731;-58
2023/10/08 20:12:35;;;;;;;10.50;5.10;;;;;;;9.38;54.34;99961.16;233034;215;136614;-60
2023/10/08 20:17:39;;;;;;;10.50;5.10;;;;;;;9.35;54.66;99966.27;233072;215;151584;-59
2023/10/08 20:22:48;;;;;;;10.20;5.40;;;;;;;9.30;54.74;99969.34;232969;215;138935;-60
2023/10/08 20:27:52;;;;;;;10.60;5.80;;;;;;;9.24;55.02;99973.98;233058;215;136808;-59
2023/10/08 20:32:56;;;;;;;11.90;6.10;;;;;;;9.20;55.24;99968.67;232923;215;149362;-59
2023/10/08 20:38:03;;;;;;;11.70;5.80;;;;;;;9.16;55.42;99966.70;233005;215;139786;-57
2023/10/08 20:43:07;;;;;;;11.70;6.40;;;;;;;9.11;55.54;99973.48;233019;215;136791;-61
2023/10/08 20:48:14;;;;;;;11.40;5.80;;;;;;;9.08;55.85;99966.86;232841;215;149411;-58
2023/10/08 20:53:18;;;;;;;11.30;5.80;;;;;;;9.01;56.16;99967.66;232931;215;138677;-58
2023/10/08 20:58:25;;;;;;;12.90;6.10;;;;;;;9.00;56.38;99968.43;232898;215;136768;-60
2023/10/08 21:03:28;;;;;;;12.10;6.00;;;;;;;8.98;56.62;99968.14;232987;215;149262;-60
2023/10/08 21:08:33;;;;;;;11.90;5.60;;;;;;;8.96;56.74;99969.45;232858;215;140105;-61
2023/10/08 21:13:37;;;;;;;10.10;5.50;;;;;;;8.92;56.99;99977.22;232993;215;136736;-59
2023/10/08 21:18:45;;;;;;;11.50;6.30;;;;;;;8.91;57.17;99977.27;232964;215;151152;-59
2023/10/08 21:23:50;;;;;;;12.20;5.80;;;;;;;8.92;57.22;99978.81;232921;215;138797;-59
2023/10/08 21:28:54;;;;;;;14.70;6.00;;;;;;;8.91;57.48;99975.34;232953;215;137269;-58
2023/10/08 21:33:57;;;;;;;11.00;6.10;;;;;;;8.90;57.62;99975.02;232874;215;150877;-60
2023/10/08 21:39:04;;;;;;;11.40;6.40;;;;;;;8.85;57.63;99975.75;232948;216;141379;-56
2023/10/08 21:44:09;;;;;;;9.80;5.70;;;;;;;8.81;57.82;99987.79;233027;215;137913;-59
2023/10/08 21:49:12;;;;;;;12.40;5.60;;;;;;;8.82;57.80;99979.41;233008;215;149340;-59
2023/10/08 21:54:16;;;;;;;12.20;5.80;;;;;;;8.83;57.80;99971.41;233050;215;139671;-58
2023/10/08 21:59:21;;;;;;;9.70;5.80;;;;;;;8.85;57.83;99971.54;232947;215;138306;-59
2023/10/08 22:04:25;;;;;;;11.00;5.80;;;;;;;8.85;57.89;99972.03;232982;214;150884;-61
2023/10/08 22:09:32;;;;;;;9.50;5.70;;;;;;;8.88;57.85;99974.23;232977;214;139989;-60
2023/10/08 22:14:44;;;;;;;9.00;5.80;;;;;;;8.90;57.91;99977.86;232917;215;137557;-60
2023/10/08 22:19:49;;;;;;;10.50;5.70;;;;;;;8.94;58.47;99989.55;232911;215;149881;-59
2023/10/08 22:24:55;;;;;;;8.80;5.80;;;;;;;8.98;58.31;99980.38;232991;216;140050;-59
2023/10/08 22:30:04;;;;;;;12.00;5.80;;;;;;;8.96;58.44;99977.40;233004;215;136851;-59
2023/10/08 22:35:14;;;;;;;10.60;5.90;;;;;;;8.94;58.92;99968.84;232969;215;148253;-60
2023/10/08 22:40:21;;;;;;;14.50;6.10;;;;;;;8.93;58.69;99966.42;232944;215;138801;-60
2023/10/08 22:45:29;;;;;;;12.20;6.50;;;;;;;8.86;58.69;99962.45;232987;215;136720;-59
2023/10/08 22:50:41;;;;;;;10.60;6.70;;;;;;;8.83;58.99;99962.40;232949;215;149712;-59
2023/10/08 22:55:45;;;;;;;11.00;6.30;;;;;;;8.84;59.67;99962.52;232885;216;139557;-59
2023/10/08 23:00:49;;;;;;;12.20;6.40;;;;;;;8.85;60.12;99957.91;233032;215;137162;-59
2023/10/08 23:05:53;;;;;;;11.70;6.70;;;;;;;8.82;60.15;99957.65;232931;215;150422;-59
2023/10/08 23:10:58;;;;;;;10.90;6.10;;;;;;;8.78;60.31;99960.98;232943;215;139240;-60
2023/10/08 23:16:04;;;;;;;13.60;6.90;;;;;;;8.77;60.86;99966.88;232992;215;136877;-58
2023/10/08 23:21:10;;;;;;;;;;;;;;;8.77;61.20;99961.56;232962;216;148762;-60
2023/10/08 23:26:15;;;;;;;13.50;6.40;;;;;;;8.74;60.96;99948.25;233009;215;138787;-60
2023/10/08 23:31:20;;;;;;;12.00;6.60;;;;;;;8.68;60.69;99944.05;233002;215;137998;-60
2023/10/08 23:36:33;;;;;;;11.10;6.50;;;;;;;8.63;60.59;99944.61;232931;215;149995;-61
2023/10/08 23:41:49;;;;;;;12.60;6.60;;;;;;;8.58;60.75;99945.16;232959;215;139832;-65
2023/10/08 23:47:11;;;;;;;14.10;7.40;;;;;;;8.57;61.71;99943.06;232910;215;138309;-63
2023/10/08 23:52:22;;;;;;;13.80;7.50;;;;;;;8.52;61.91;99937.80;233001;215;149042;-63
